sensor_id;sensor_type;location;lat;lon;timestamp;temperature;humidity
18781;DHT22;9519;51.890;8.970;2023-03-11T00:00:33;1.20;99.90
18781;DHT22;9519;51.890;8.970;2023-03-11T00:05:40;1.20;99.90
18781;DHT22;9519;51.890;8.970;2023-03-11T00:10:45;1.20;99.90
18781;DHT22;9519;51.890;8.970;2023-03-11T00:15:51;1.20;99.90
18781;DHT22;9519;51.890;8.970;2023-03-11T00:20:58;1.10;99.90
18781;DHT22;9519;51.890;8.970;2023-03-11T00:31:04;1.10;99.90
18781;DHT22;9519;51.890;8.970;2023-03-11T00:36:16;1.10;99.90
18781;DHT22;9519;51.890;8.970;2023-03-11T00:51:32;1.00;99.90
18781;DHT22;9519;51.890;8.970;2023-03-11T01:06:40;0.90;99.90
18781;DHT22;9519;51.890;8.970;2023-03-11T01:21:49;0.90;99.90
18781;DHT22;9519;51.890;8.970;2023-03-11T01:37:01;0.90;99.90
18781;DHT22;9519;51.890;8.970;2023-03-11T01:47:33;0.90;99.90
18781;DHT22;9519;51.890;8.970;2023-03-11T01:52:39;0.90;99.90
18781;DHT22;9519;51.890;8.970;2023-03-11T01:57:45;0.90;99.90
18781;DHT22;9519;51.890;8.970;2023-03-11T02:02:50;0.90;99.90
18781;DHT22;9519;51.890;8.970;2023-03-11T02:07:55;0.90;99.90
18781;DHT22;9519;51.890;8.970;2023-03-11T02:18:04;0.90;99.90
18781;DHT22;9519;51.890;8.970;2023-03-11T02:23:09;1.00;99.90
18781;DHT22;9519;51.890;8.970;2023-03-11T02:28:16;1.00;99.90
18781;DHT22;9519;51.890;8.970;2023-03-11T02:43:32;1.00;99.90
18781;DHT22;9519;51.890;8.970;2023-03-11T02:53:45;1.30;99.90
18781;DHT22;9519;51.890;8.970;2023-03-11T02:58:53;1.00;99.90
18781;DHT22;9519;51.890;8.970;2023-03-11T03:14:01;1.10;99.90
18781;DHT22;9519;51.890;8.970;2023-03-11T03:29:10;1.00;99.90
18781;DHT22;9519;51.890;8.970;2023-03-11T03:44:19;1.00;99.90
18781;DHT22;9519;51.890;8.970;2023-03-11T03:59:27;1.00;99.90
18781;DHT22;9519;51.890;8.970;2023-03-11T04:14:36;0.90;99.90
18781;DHT22;9519;51.890;8.970;2023-03-11T04:29:44;0.90;99.90
18781;DHT22;9519;51.890;8.970;2023-03-11T04:44:54;1.00;99.90
18781;DHT22;9519;51.890;8.970;2023-03-11T04:55:00;1.00;99.90
18781;DHT22;9519;51.890;8.970;2023-03-11T05:00:05;1.00;99.90
18781;DHT22;9519;51.890;8.970;2023-03-11T05:15:22;1.00;99.90
18781;DHT22;9519;51.890;8.970;2023-03-11T05:30:32;1.00;99.90
18781;DHT22;9519;51.890;8.970;2023-03-11T05:45:40;0.90;99.90
18781;DHT22;9519;51.890;8.970;2023-03-11T06:00:57;0.80;99.90
18781;DHT22;9519;51.890;8.970;2023-03-11T06:11:03;0.70;99.90
18781;DHT22;9519;51.890;8.970;2023-03-11T06:16:08;0.70;99.90
18781;DHT22;9519;51.890;8.970;2023-03-11T06:21:14;0.70;99.90
18781;DHT22;9519;51.890;8.970;2023-03-11T06:26:19;0.70;99.90
18781;DHT22;9519;51.890;8.970;2023-03-11T06:31:25;0.70;99.90
18781;DHT22;9519;51.890;8.970;2023-03-11T06:41:32;0.70;99.90
18781;DHT22;9519;51.890;8.970;2023-03-11T06:46:36;0.80;99.90
18781;DHT22;9519;51.890;8.970;2023-03-11T07:01:44;0.90;99.90
18781;DHT22;9519;51.890;8.970;2023-03-11T07:16:53;0.90;99.90
18781;DHT22;9519;51.890;8.970;2023-03-11T07:26:57;1.10;99.90
18781;DHT22;9519;51.890;8.970;2023-03-11T07:32:00;0.90;99.90
18781;DHT22;9519;51.890;8.970;2023-03-11T07:42:05;1.30;99.90
18781;DHT22;9519;51.890;8.970;2023-03-11T07:47:09;1.10;99.90
18781;DHT22;9519;51.890;8.970;2023-03-11T08:02:18;1.10;99.90
18781;DHT22;9519;51.890;8.970;2023-03-11T08:07:20;1.40;99.90
18781;DHT22;9519;51.890;8.970;2023-03-11T08:12:22;1.40;99.90
18781;DHT22;9519;51.890;8.970;2023-03-11T08:17:26;1.30;99.90
18781;DHT22;9519;51.890;8.970;2023-03-11T08:22:28;1.30;99.90
18781;DHT22;9519;51.890;8.970;2023-03-11T08:27:31;1.60;99.90
18781;DHT22;9519;51.890;8.970;2023-03-11T08:32:34;1.40;99.90
18781;DHT22;9519;51.890;8.970;2023-03-11T08:47:43;1.50;99.90
18781;DHT22;9519;51.890;8.970;2023-03-11T08:52:45;1.60;99.90
18781;DHT22;9519;51.890;8.970;2023-03-11T09:02:51;1.80;99.90
18781;DHT22;9519;51.890;8.970;2023-03-11T09:07:53;1.80;99.90
18781;DHT22;9519;51.890;8.970;2023-03-11T09:17:58;1.80;99.90
18781;DHT22;9519;51.890;8.970;2023-03-11T09:28:03;2.20;99.90
18781;DHT22;9519;51.890;8.970;2023-03-11T09:33:07;1.90;99.90
18781;DHT22;9519;51.890;8.970;2023-03-11T09:43:17;1.90;99.90
18781;DHT22;9519;51.890;8.970;2023-03-11T09:48:33;2.00;99.90
18781;DHT22;9519;51.890;8.970;2023-03-11T09:53:41;1.80;99.90
18781;DHT22;9519;51.890;8.970;2023-03-11T09:58:46;0.80;99.90
18781;DHT22;9519;51.890;8.970;2023-03-11T10:03:54;2.50;99.90
18781;DHT22;9519;51.890;8.970;2023-03-11T10:09:03;2.00;99.90
18781;DHT22;9519;51.890;8.970;2023-03-11T10:14:27;2.20;99.90
18781;DHT22;9519;51.890;8.970;2023-03-11T10:19:47;2.30;99.90
18781;DHT22;9519;51.890;8.970;2023-03-11T10:25:13;2.40;99.90
18781;DHT22;9519;51.890;8.970;2023-03-11T10:30:24;2.50;99.90
18781;DHT22;9519;51.890;8.970;2023-03-11T10:35:38;2.40;99.90
18781;DHT22;9519;51.890;8.970;2023-03-11T10:40:43;2.60;99.90
18781;DHT22;9519;51.890;8.970;2023-03-11T10:45:47;2.50;99.90
18781;DHT22;9519;51.890;8.970;2023-03-11T10:50:56;2.60;99.90
18781;DHT22;9519;51.890;8.970;2023-03-11T10:56:02;2.50;99.90
18781;DHT22;9519;51.890;8.970;2023-03-11T11:01:13;2.70;99.90
18781;DHT22;9519;51.890;8.970;2023-03-11T11:06:22;2.50;99.90
18781;DHT22;9519;51.890;8.970;2023-03-11T11:11:28;3.10;99.90
18781;DHT22;9519;51.890;8.970;2023-03-11T11:16:32;2.70;99.90
18781;DHT22;9519;51.890;8.970;2023-03-11T11:21:38;2.80;99.90
18781;DHT22;9519;51.890;8.970;2023-03-11T11:27:02;2.70;99.90
18781;DHT22;9519;51.890;8.970;2023-03-11T11:32:23;2.80;99.90
18781;DHT22;9519;51.890;8.970;2023-03-11T11:37:29;3.00;99.90
18781;DHT22;9519;51.890;8.970;2023-03-11T11:42:32;2.90;99.90
18781;DHT22;9519;51.890;8.970;2023-03-11T11:47:35;2.90;99.90
18781;DHT22;9519;51.890;8.970;2023-03-11T11:52:48;3.40;99.90
18781;DHT22;9519;51.890;8.970;2023-03-11T11:57:53;3.10;99.90
18781;DHT22;9519;51.890;8.970;2023-03-11T12:03:07;3.10;99.90
18781;DHT22;9519;51.890;8.970;2023-03-11T12:08:27;3.00;99.90
18781;DHT22;9519;51.890;8.970;2023-03-11T12:13:59;3.20;99.90
18781;DHT22;9519;51.890;8.970;2023-03-11T12:19:22;3.30;99.90
18781;DHT22;9519;51.890;8.970;2023-03-11T12:24:47;3.30;99.90
18781;DHT22;9519;51.890;8.970;2023-03-11T12:30:01;3.40;99.90
18781;DHT22;9519;51.890;8.970;2023-03-11T12:35:09;3.30;99.90
18781;DHT22;9519;51.890;8.970;2023-03-11T12:40:56;3.70;99.90
18781;DHT22;9519;51.890;8.970;2023-03-11T12:56:12;3.60;99.90
18781;DHT22;9519;51.890;8.970;2023-03-11T13:01:56;3.20;99.90
18781;DHT22;9519;51.890;8.970;2023-03-11T13:07:28;3.30;99.90
18781;DHT22;9519;51.890;8.970;2023-03-11T13:12:41;3.60;99.90
18781;DHT22;9519;51.890;8.970;2023-03-11T13:17:56;3.50;99.90
18781;DHT22;9519;51.890;8.970;2023-03-11T13:23:23;3.60;99.90
18781;DHT22;9519;51.890;8.970;2023-03-11T13:28:43;3.40;99.90
18781;DHT22;9519;51.890;8.970;2023-03-11T13:34:04;3.60;99.90
18781;DHT22;9519;51.890;8.970;2023-03-11T13:39:40;3.30;99.90
18781;DHT22;9519;51.890;8.970;2023-03-11T13:44:49;3.50;99.90
18781;DHT22;9519;51.890;8.970;2023-03-11T13:49:57;3.40;99.90
18781;DHT22;9519;51.890;8.970;2023-03-11T13:55:04;4.00;99.90
18781;DHT22;9519;51.890;8.970;2023-03-11T14:00:16;3.60;99.90
18781;DHT22;9519;51.890;8.970;2023-03-11T14:05:24;3.80;99.90
18781;DHT22;9519;51.890;8.970;2023-03-11T14:10:28;3.80;99.60
18781;DHT22;9519;51.890;8.970;2023-03-11T14:15:40;3.60;99.90
18781;DHT22;9519;51.890;8.970;2023-03-11T14:20:46;3.90;99.90
18781;DHT22;9519;51.890;8.970;2023-03-11T14:25:57;4.00;99.90
18781;DHT22;9519;51.890;8.970;2023-03-11T14:31:03;4.10;99.90
18781;DHT22;9519;51.890;8.970;2023-03-11T14:36:10;4.20;99.90
18781;DHT22;9519;51.890;8.970;2023-03-11T14:41:15;4.40;99.90
18781;DHT22;9519;51.890;8.970;2023-03-11T14:46:21;4.30;99.90
18781;DHT22;9519;51.890;8.970;2023-03-11T14:51:30;4.40;99.90
18781;DHT22;9519;51.890;8.970;2023-03-11T14:56:38;4.60;99.90
18781;DHT22;9519;51.890;8.970;2023-03-11T15:01:45;4.90;99.90
18781;DHT22;9519;51.890;8.970;2023-03-11T15:06:50;4.40;99.90
18781;DHT22;9519;51.890;8.970;2023-03-11T15:11:53;4.70;98.60
18781;DHT22;9519;51.890;8.970;2023-03-11T15:17:12;4.90;99.90
18781;DHT22;9519;51.890;8.970;2023-03-11T15:22:24;5.10;99.90
18781;DHT22;9519;51.890;8.970;2023-03-11T15:27:29;5.60;99.90
18781;DHT22;9519;51.890;8.970;2023-03-11T15:32:38;5.00;97.60
18781;DHT22;9519;51.890;8.970;2023-03-11T15:37:43;5.40;99.90
18781;DHT22;9519;51.890;8.970;2023-03-11T15:42:46;5.10;96.50
18781;DHT22;9519;51.890;8.970;2023-03-11T15:47:50;5.00;96.60
18781;DHT22;9519;51.890;8.970;2023-03-11T15:52:54;5.00;99.90
18781;DHT22;9519;51.890;8.970;2023-03-11T15:58:01;5.10;99.90
18781;DHT22;9519;51.890;8.970;2023-03-11T16:03:10;5.10;96.60
18781;DHT22;9519;51.890;8.970;2023-03-11T16:08:12;5.00;99.90
18781;DHT22;9519;51.890;8.970;2023-03-11T16:13:15;4.60;99.90
18781;DHT22;9519;51.890;8.970;2023-03-11T16:18:18;4.80;99.90
18781;DHT22;9519;51.890;8.970;2023-03-11T16:23:22;4.30;99.90
18781;DHT22;9519;51.890;8.970;2023-03-11T16:28:26;4.20;99.90
18781;DHT22;9519;51.890;8.970;2023-03-11T16:33:29;4.40;99.90
18781;DHT22;9519;51.890;8.970;2023-03-11T16:38:42;4.20;99.90
18781;DHT22;9519;51.890;8.970;2023-03-11T16:43:46;4.10;99.90
18781;DHT22;9519;51.890;8.970;2023-03-11T16:48:50;3.90;99.90
18781;DHT22;9519;51.890;8.970;2023-03-11T16:53:53;3.90;99.90
18781;DHT22;9519;51.890;8.970;2023-03-11T16:58:55;3.90;99.90
18781;DHT22;9519;51.890;8.970;2023-03-11T17:03:58;3.60;99.90
18781;DHT22;9519;51.890;8.970;2023-03-11T17:14:03;3.70;99.90
18781;DHT22;9519;51.890;8.970;2023-03-11T17:19:06;3.50;99.90
18781;DHT22;9519;51.890;8.970;2023-03-11T17:24:09;3.60;99.90
18781;DHT22;9519;51.890;8.970;2023-03-11T17:29:11;3.50;99.90
18781;DHT22;9519;51.890;8.970;2023-03-11T17:34:15;3.40;99.90
18781;DHT22;9519;51.890;8.970;2023-03-11T17:39:17;3.30;97.10
18781;DHT22;9519;51.890;8.970;2023-03-11T17:44:21;3.40;99.90
18781;DHT22;9519;51.890;8.970;2023-03-11T17:49:25;3.20;99.90
18781;DHT22;9519;51.890;8.970;2023-03-11T17:54:27;3.40;99.90
18781;DHT22;9519;51.890;8.970;2023-03-11T17:59:29;3.00;99.90
18781;DHT22;9519;51.890;8.970;2023-03-11T18:04:32;3.20;99.90
18781;DHT22;9519;51.890;8.970;2023-03-11T18:09:34;3.10;99.90
18781;DHT22;9519;51.890;8.970;2023-03-11T18:14:37;2.90;99.90
18781;DHT22;9519;51.890;8.970;2023-03-11T18:19:40;2.70;99.90
18781;DHT22;9519;51.890;8.970;2023-03-11T18:24:42;2.60;99.90
18781;DHT22;9519;51.890;8.970;2023-03-11T18:29:45;2.80;99.90
18781;DHT22;9519;51.890;8.970;2023-03-11T18:34:50;2.70;99.90
18781;DHT22;9519;51.890;8.970;2023-03-11T18:39:52;2.90;99.90
18781;DHT22;9519;51.890;8.970;2023-03-11T18:44:54;2.60;99.90
18781;DHT22;9519;51.890;8.970;2023-03-11T18:49:57;2.70;99.90
18781;DHT22;9519;51.890;8.970;2023-03-11T18:54:59;2.60;99.90
18781;DHT22;9519;51.890;8.970;2023-03-11T19:00:02;2.50;99.90
18781;DHT22;9519;51.890;8.970;2023-03-11T19:05:06;2.20;99.90
18781;DHT22;9519;51.890;8.970;2023-03-11T19:10:10;2.60;98.60
18781;DHT22;9519;51.890;8.970;2023-03-11T19:15:17;2.40;99.90
18781;DHT22;9519;51.890;8.970;2023-03-11T19:20:21;2.30;99.90
18781;DHT22;9519;51.890;8.970;2023-03-11T19:25:26;2.40;99.90
18781;DHT22;9519;51.890;8.970;2023-03-11T19:30:28;2.80;99.90
18781;DHT22;9519;51.890;8.970;2023-03-11T19:35:33;2.70;99.90
18781;DHT22;9519;51.890;8.970;2023-03-11T19:40:38;2.70;99.90
18781;DHT22;9519;51.890;8.970;2023-03-11T19:50:44;2.50;99.10
18781;DHT22;9519;51.890;8.970;2023-03-11T19:55:49;2.50;99.10
18781;DHT22;9519;51.890;8.970;2023-03-11T20:00:53;2.50;99.90
18781;DHT22;9519;51.890;8.970;2023-03-11T20:06:02;2.20;99.90
18781;DHT22;9519;51.890;8.970;2023-03-11T20:16:10;2.10;99.90
18781;DHT22;9519;51.890;8.970;2023-03-11T20:21:15;2.50;99.90
18781;DHT22;9519;51.890;8.970;2023-03-11T20:26:18;2.10;99.90
18781;DHT22;9519;51.890;8.970;2023-03-11T20:31:22;2.10;99.90
18781;DHT22;9519;51.890;8.970;2023-03-11T20:36:29;2.00;99.90
18781;DHT22;9519;51.890;8.970;2023-03-11T20:41:34;2.00;99.60
18781;DHT22;9519;51.890;8.970;2023-03-11T20:46:37;2.10;99.90
18781;DHT22;9519;51.890;8.970;2023-03-11T20:51:41;2.00;99.90
18781;DHT22;9519;51.890;8.970;2023-03-11T20:56:47;2.10;99.90
18781;DHT22;9519;51.890;8.970;2023-03-11T21:01:50;2.00;99.90
18781;DHT22;9519;51.890;8.970;2023-03-11T21:06:53;2.10;99.90
18781;DHT22;9519;51.890;8.970;2023-03-11T21:11:56;2.00;99.90
18781;DHT22;9519;51.890;8.970;2023-03-11T21:17:00;2.00;99.90
18781;DHT22;9519;51.890;8.970;2023-03-11T21:22:03;2.00;99.90
18781;DHT22;9519;51.890;8.970;2023-03-11T21:27:06;2.10;99.90
18781;DHT22;9519;51.890;8.970;2023-03-11T21:32:08;1.90;99.90
18781;DHT22;9519;51.890;8.970;2023-03-11T21:37:11;2.00;99.50
18781;DHT22;9519;51.890;8.970;2023-03-11T21:42:13;1.80;99.90
18781;DHT22;9519;51.890;8.970;2023-03-11T21:47:15;2.20;99.90
18781;DHT22;9519;51.890;8.970;2023-03-11T21:52:19;2.10;99.90
18781;DHT22;9519;51.890;8.970;2023-03-11T21:57:21;2.10;99.90
18781;DHT22;9519;51.890;8.970;2023-03-11T22:02:23;2.10;99.90
18781;DHT22;9519;51.890;8.970;2023-03-11T22:07:26;2.10;99.90
18781;DHT22;9519;51.890;8.970;2023-03-11T22:12:29;2.20;99.90
18781;DHT22;9519;51.890;8.970;2023-03-11T22:17:31;2.00;99.90
18781;DHT22;9519;51.890;8.970;2023-03-11T22:22:34;2.00;99.90
18781;DHT22;9519;51.890;8.970;2023-03-11T22:27:37;2.00;99.90
18781;DHT22;9519;51.890;8.970;2023-03-11T22:32:39;1.90;99.90
18781;DHT22;9519;51.890;8.970;2023-03-11T22:37:43;1.80;99.90
18781;DHT22;9519;51.890;8.970;2023-03-11T22:47:49;1.60;99.90
18781;DHT22;9519;51.890;8.970;2023-03-11T22:52:54;1.50;99.90
18781;DHT22;9519;51.890;8.970;2023-03-11T23:02:58;1.40;99.90
18781;DHT22;9519;51.890;8.970;2023-03-11T23:08:01;1.30;99.90
18781;DHT22;9519;51.890;8.970;2023-03-11T23:13:03;1.20;99.90
18781;DHT22;9519;51.890;8.970;2023-03-11T23:18:06;1.10;99.90
18781;DHT22;9519;51.890;8.970;2023-03-11T23:23:10;1.40;99.90
18781;DHT22;9519;51.890;8.970;2023-03-11T23:33:15;0.90;99.90
18781;DHT22;9519;51.890;8.970;2023-03-11T23:38:18;1.00;99.90
18781;DHT22;9519;51.890;8.970;2023-03-11T23:43:21;3.40;99.90
18781;DHT22;9519;51.890;8.970;2023-03-11T23:53:27;1.00;99.90
18781;DHT22;9519;51.890;8.970;2023-03-11T23:58:29;1.30;99.90
